createdAt,value
2017-10-09T00:00:56.758Z,1014.1
2017-10-09T00:01:56.733Z,1014.07
2017-10-09T00:02:56.709Z,1014.08
2017-10-09T00:03:56.686Z,1014.09
2017-10-09T00:04:56.664Z,1014.06
2017-10-09T00:05:56.637Z,1014.05
2017-10-09T00:07:01.643Z,1014.07
2017-10-09T00:07:56.587Z,1014.07
2017-10-09T00:08:56.562Z,1014.06
2017-10-09T00:09:56.540Z,1014.07
2017-10-09T00:10:56.511Z,1014.09
2017-10-09T00:11:56.488Z,1014.12
2017-10-09T00:12:56.466Z,1014.11
2017-10-09T00:13:56.440Z,1014.12
2017-10-09T00:14:56.414Z,1014.12
2017-10-09T00:15:56.391Z,1014.09
2017-10-09T00:16:56.366Z,1014.03
2017-10-09T00:17:56.347Z,1014.1
2017-10-09T00:18:56.320Z,1014.04
2017-10-09T00:19:56.296Z,1014.06
2017-10-09T00:20:56.268Z,1014.09
2017-10-09T00:21:56.243Z,1014.01
2017-10-09T00:22:56.219Z,1014.04
2017-10-09T00:23:56.197Z,1014.02
2017-10-09T00:24:56.170Z,1014
2017-10-09T00:25:56.146Z,1013.98
2017-10-09T00:26:56.124Z,1014.02
2017-10-09T00:27:56.094Z,1014.03
2017-10-09T00:28:56.073Z,1014.05
2017-10-09T00:29:56.048Z,1014.03
2017-10-09T00:30:56.022Z,1014.03
2017-10-09T00:31:56.000Z,1014.05
2017-10-09T00:32:55.976Z,1014.06
2017-10-09T00:33:55.953Z,1014.06
2017-10-09T00:34:55.932Z,1014.07
2017-10-09T00:35:55.900Z,1014.05
2017-10-09T00:36:55.877Z,1014.07
2017-10-09T00:37:55.853Z,1014.1
2017-10-09T00:38:55.827Z,1014.12
2017-10-09T00:39:55.804Z,1014.1
2017-10-09T00:40:55.779Z,1014.09
2017-10-09T00:41:55.753Z,1014.07
2017-10-09T00:42:55.730Z,1014.1
2017-10-09T00:43:55.705Z,1014.06
2017-10-09T00:44:55.679Z,1014.06
2017-10-09T00:45:55.657Z,1014.11
2017-10-09T00:46:55.631Z,1014.08
2017-10-09T00:47:55.606Z,1014.07
2017-10-09T00:48:55.581Z,1014.04
2017-10-09T00:49:55.557Z,1014.09
2017-10-09T00:50:55.532Z,1014.1
2017-10-09T00:51:55.508Z,1014.06
2017-10-09T00:52:55.488Z,1014.04
2017-10-09T00:53:55.458Z,1014.02
2017-10-09T00:54:55.435Z,1014.07
2017-10-09T00:55:55.414Z,1014.06
2017-10-09T00:56:55.390Z,1014.04
2017-10-09T00:57:55.362Z,1014.01
2017-10-09T00:58:55.334Z,1014.03
2017-10-09T00:59:55.310Z,1014.04
2017-10-09T01:00:55.288Z,1014.06
2017-10-09T01:01:55.264Z,1014.07
2017-10-09T01:02:55.240Z,1014.05
2017-10-09T01:03:55.212Z,1014.04
2017-10-09T01:04:55.193Z,1014.04
2017-10-09T01:05:55.164Z,1014.02
2017-10-09T01:06:55.141Z,1014.05
2017-10-09T01:07:55.114Z,1014.06
2017-10-09T01:08:55.095Z,1014.02
2017-10-09T01:09:55.070Z,1014.02
2017-10-09T01:10:55.040Z,1014.04
2017-10-09T01:11:55.017Z,1014
2017-10-09T01:12:54.991Z,1014.04
2017-10-09T01:13:54.966Z,1014.05
2017-10-09T01:14:54.941Z,1014.03
2017-10-09T01:15:54.918Z,1014.03
2017-10-09T01:16:54.894Z,1014.03
2017-10-09T01:17:54.870Z,1014.01
2017-10-09T01:18:54.844Z,1014.01
2017-10-09T01:19:54.821Z,1014
2017-10-09T01:20:54.794Z,1014.01
2017-10-09T01:21:54.770Z,1014.03
2017-10-09T01:22:54.748Z,1014.02
2017-10-09T01:23:54.722Z,1014.05
2017-10-09T01:24:54.703Z,1014.04
2017-10-09T01:25:54.674Z,1014.05
2017-10-09T01:26:54.655Z,1014.01
2017-10-09T01:27:54.625Z,1014.05
2017-10-09T01:28:54.600Z,1013.98
2017-10-09T01:29:54.581Z,1013.94
2017-10-09T01:30:54.551Z,1013.98
2017-10-09T01:31:54.526Z,1014
2017-10-09T01:32:54.503Z,1013.95
2017-10-09T01:33:54.481Z,1013.95
2017-10-09T01:34:54.452Z,1013.92
2017-10-09T01:35:54.431Z,1013.91
2017-10-09T01:36:54.406Z,1013.97
2017-10-09T01:37:54.380Z,1013.9
2017-10-09T01:38:54.355Z,1013.95
2017-10-09T01:39:54.332Z,1013.93
2017-10-09T01:40:54.307Z,1013.92
2017-10-09T01:41:54.286Z,1013.93
2017-10-09T01:42:54.261Z,1013.9
2017-10-09T01:43:54.236Z,1013.92
2017-10-09T01:44:54.211Z,1013.9
2017-10-09T01:45:54.187Z,1013.9
2017-10-09T01:46:54.162Z,1013.91
2017-10-09T01:47:54.140Z,1013.91
2017-10-09T01:48:54.113Z,1013.9
2017-10-09T01:50:54.065Z,1013.92
2017-10-09T01:51:54.042Z,1013.9
2017-10-09T01:52:54.019Z,1013.9
2017-10-09T01:53:53.996Z,1013.84
2017-10-09T01:54:53.968Z,1013.87
2017-10-09T01:55:53.946Z,1013.89
2017-10-09T01:56:53.921Z,1013.85
2017-10-09T01:57:53.897Z,1013.86
2017-10-09T01:58:53.873Z,1013.8
2017-10-09T01:59:53.848Z,1013.84
2017-10-09T02:00:53.823Z,1013.84
2017-10-09T02:01:53.800Z,1013.83
2017-10-09T02:02:53.784Z,1013.82
2017-10-09T02:03:53.751Z,1013.83
2017-10-09T02:04:53.728Z,1013.8
2017-10-09T02:05:53.703Z,1013.84
2017-10-09T02:06:53.682Z,1013.82
2017-10-09T02:07:53.658Z,1013.89
2017-10-09T02:08:53.632Z,1013.84
2017-10-09T02:09:53.607Z,1013.87
2017-10-09T02:10:53.583Z,1013.84
2017-10-09T02:11:53.560Z,1013.84
2017-10-09T02:12:53.533Z,1013.82
2017-10-09T02:13:53.514Z,1013.82
2017-10-09T02:14:53.489Z,1013.83
2017-10-09T02:15:53.461Z,1013.85
2017-10-09T02:16:53.437Z,1013.87
2017-10-09T02:17:53.414Z,1013.85
2017-10-09T02:18:53.389Z,1013.87
2017-10-09T02:19:53.365Z,1013.89
2017-10-09T02:20:53.345Z,1013.88
2017-10-09T02:21:53.318Z,1013.89
2017-10-09T02:22:53.295Z,1013.93
2017-10-09T02:23:53.267Z,1013.85
2017-10-09T02:24:53.244Z,1013.86
2017-10-09T02:25:53.221Z,1013.86
2017-10-09T02:26:53.195Z,1013.85
2017-10-09T02:27:53.170Z,1013.82
2017-10-09T02:28:53.147Z,1013.82
2017-10-09T02:29:53.123Z,1013.81
2017-10-09T02:30:53.097Z,1013.84
2017-10-09T02:31:53.073Z,1013.84
2017-10-09T02:32:53.054Z,1013.86
2017-10-09T02:33:53.025Z,1013.86
2017-10-09T02:34:53.002Z,1013.88
2017-10-09T02:35:52.976Z,1013.85
2017-10-09T02:36:52.954Z,1013.87
2017-10-09T02:37:52.928Z,1013.94
2017-10-09T02:38:52.909Z,1013.9
2017-10-09T02:39:52.878Z,1013.94
2017-10-09T02:40:52.854Z,1013.89
2017-10-09T02:41:52.831Z,1013.89
2017-10-09T02:42:52.808Z,1013.95
2017-10-09T02:43:52.783Z,1013.89
2017-10-09T02:44:52.758Z,1013.88
2017-10-09T02:45:52.734Z,1013.88
2017-10-09T02:46:52.709Z,1013.88
2017-10-09T02:47:52.686Z,1013.89
2017-10-09T02:48:52.661Z,1013.87
2017-10-09T02:49:52.634Z,1013.89
2017-10-09T02:50:52.612Z,1013.89
2017-10-09T02:51:52.589Z,1013.85
2017-10-09T02:52:52.562Z,1013.87
2017-10-09T02:53:52.539Z,1013.85
2017-10-09T02:54:52.515Z,1013.89
2017-10-09T02:55:52.491Z,1013.92
2017-10-09T02:56:52.469Z,1013.9
2017-10-09T02:57:52.444Z,1013.9
2017-10-09T02:58:52.418Z,1013.89
2017-10-09T02:59:52.393Z,1013.9
2017-10-09T03:00:52.372Z,1013.9
2017-10-09T03:01:52.345Z,1013.92
2017-10-09T03:02:52.321Z,1013.91
2017-10-09T03:03:52.296Z,1013.89
2017-10-09T03:04:52.279Z,1013.84
2017-10-09T03:05:52.250Z,1013.83
2017-10-09T03:06:52.226Z,1013.89
2017-10-09T03:07:52.199Z,1013.86
2017-10-09T03:08:52.174Z,1013.86
2017-10-09T03:09:52.149Z,1013.85
2017-10-09T03:10:52.126Z,1013.83
2017-10-09T03:11:52.100Z,1013.89
2017-10-09T03:12:52.081Z,1013.82
2017-10-09T03:13:52.051Z,1013.82
2017-10-09T03:14:52.027Z,1013.83
2017-10-09T03:15:52.007Z,1013.87
2017-10-09T03:16:51.978Z,1013.81
2017-10-09T03:17:51.956Z,1013.82
2017-10-09T03:18:51.930Z,1013.87
2017-10-09T03:19:51.905Z,1013.87
2017-10-09T03:20:51.880Z,1013.85
2017-10-09T03:21:51.856Z,1013.85
2017-10-09T03:22:51.831Z,1013.84
2017-10-09T03:23:51.807Z,1013.84
2017-10-09T03:24:51.783Z,1013.82
2017-10-09T03:25:51.758Z,1013.86
2017-10-09T03:26:51.736Z,1013.82
2017-10-09T03:27:51.709Z,1013.88
2017-10-09T03:28:51.683Z,1013.88
2017-10-09T03:29:51.661Z,1013.86
2017-10-09T03:30:51.635Z,1013.87
2017-10-09T03:31:51.610Z,1013.87
2017-10-09T03:32:51.589Z,1013.87
2017-10-09T03:33:51.567Z,1013.87
2017-10-09T03:34:51.539Z,1013.87
2017-10-09T03:35:51.513Z,1013.83
2017-10-09T03:36:51.488Z,1013.85
2017-10-09T03:37:51.465Z,1013.85
2017-10-09T03:38:51.440Z,1013.88
2017-10-09T03:39:51.415Z,1013.86
2017-10-09T03:40:51.390Z,1013.89
2017-10-09T03:41:51.366Z,1013.84
2017-10-09T03:42:51.341Z,1013.85
2017-10-09T03:43:51.318Z,1013.83
2017-10-09T03:44:51.291Z,1013.82
2017-10-09T03:45:51.267Z,1013.79
2017-10-09T03:46:51.242Z,1013.81
2017-10-09T03:47:51.217Z,1013.8
2017-10-09T03:48:51.194Z,1013.79
2017-10-09T03:49:51.168Z,1013.84
2017-10-09T03:50:51.153Z,1013.83
2017-10-09T03:51:51.120Z,1013.81
2017-10-09T03:52:51.096Z,1013.84
2017-10-09T03:53:51.070Z,1013.84
2017-10-09T03:54:51.044Z,1013.86
2017-10-09T03:55:51.021Z,1013.85
2017-10-09T03:56:50.996Z,1013.81
2017-10-09T03:57:50.974Z,1013.85
2017-10-09T03:58:50.945Z,1013.84
2017-10-09T03:59:50.922Z,1013.81
2017-10-09T04:00:50.897Z,1013.78
2017-10-09T04:01:50.878Z,1013.84
2017-10-09T04:02:50.846Z,1013.84
2017-10-09T04:03:50.826Z,1013.89
2017-10-09T04:04:50.801Z,1013.84
2017-10-09T04:05:50.773Z,1013.83
2017-10-09T04:06:50.748Z,1013.88
2017-10-09T04:07:50.723Z,1013.84
2017-10-09T04:08:50.699Z,1013.83
2017-10-09T04:09:50.676Z,1013.77
2017-10-09T04:10:50.650Z,1013.79
2017-10-09T04:11:50.626Z,1013.87
2017-10-09T04:12:50.600Z,1013.81
2017-10-09T04:13:50.575Z,1013.82
2017-10-09T04:14:50.550Z,1013.81
2017-10-09T04:15:50.525Z,1013.79
2017-10-09T04:16:50.501Z,1013.8
2017-10-09T04:17:50.478Z,1013.8
2017-10-09T04:18:50.452Z,1013.77
2017-10-09T04:19:50.430Z,1013.81
2017-10-09T04:20:50.400Z,1013.77
2017-10-09T04:21:50.381Z,1013.76
2017-10-09T04:22:50.352Z,1013.78
2017-10-09T04:23:50.327Z,1013.79
2017-10-09T04:24:50.302Z,1013.81
2017-10-09T04:25:50.279Z,1013.79
2017-10-09T04:26:50.251Z,1013.8
2017-10-09T04:27:50.228Z,1013.8
2017-10-09T04:28:50.203Z,1013.77
2017-10-09T04:29:50.176Z,1013.74
2017-10-09T04:30:50.157Z,1013.76
2017-10-09T04:31:50.132Z,1013.78
2017-10-09T04:32:50.104Z,1013.71
2017-10-09T04:33:50.079Z,1013.71
2017-10-09T04:34:50.056Z,1013.7
2017-10-09T04:35:50.033Z,1013.69
2017-10-09T04:36:50.007Z,1013.67
2017-10-09T04:37:49.984Z,1013.67
2017-10-09T04:38:49.956Z,1013.7
2017-10-09T04:39:49.931Z,1013.69
2017-10-09T04:40:49.907Z,1013.67
2017-10-09T04:41:49.881Z,1013.66
2017-10-09T04:42:49.860Z,1013.67
2017-10-09T04:43:49.832Z,1013.67
2017-10-09T04:44:49.808Z,1013.69
2017-10-09T04:45:49.787Z,1013.7
2017-10-09T04:46:49.759Z,1013.66
2017-10-09T04:47:49.734Z,1013.68
2017-10-09T04:48:49.710Z,1013.67
2017-10-09T04:49:49.685Z,1013.62
2017-10-09T04:50:49.660Z,1013.64
2017-10-09T04:51:49.636Z,1013.64
2017-10-09T04:52:49.610Z,1013.63
2017-10-09T04:53:49.583Z,1013.65
2017-10-09T04:54:49.565Z,1013.61
2017-10-09T04:55:49.536Z,1013.6
2017-10-09T04:56:49.513Z,1013.64
2017-10-09T04:57:49.488Z,1013.62
2017-10-09T04:58:49.466Z,1013.6
2017-10-09T04:59:49.439Z,1013.62
2017-10-09T05:00:49.418Z,1013.55
2017-10-09T05:01:49.392Z,1013.6
2017-10-09T05:02:49.365Z,1013.53
2017-10-09T05:03:49.341Z,1013.53
2017-10-09T05:04:49.315Z,1013.58
2017-10-09T05:05:49.292Z,1013.58
2017-10-09T05:06:49.274Z,1013.56
2017-10-09T05:07:49.241Z,1013.54
2017-10-09T05:08:49.221Z,1013.59
2017-10-09T05:09:49.197Z,1013.6
2017-10-09T05:10:49.171Z,1013.58
2017-10-09T05:11:49.144Z,1013.58
2017-10-09T05:12:49.119Z,1013.59
2017-10-09T05:13:49.094Z,1013.59
2017-10-09T05:14:49.068Z,1013.61
2017-10-09T05:15:49.045Z,1013.6
2017-10-09T05:16:49.023Z,1013.63
2017-10-09T05:17:48.995Z,1013.62
2017-10-09T05:18:48.973Z,1013.63
2017-10-09T05:19:48.947Z,1013.65
2017-10-09T05:20:48.925Z,1013.66
2017-10-09T05:21:48.895Z,1013.66
2017-10-09T05:22:48.875Z,1013.65
2017-10-09T05:23:48.852Z,1013.63
2017-10-09T05:24:48.825Z,1013.62
2017-10-09T05:25:48.800Z,1013.62
2017-10-09T05:26:48.776Z,1013.62
2017-10-09T05:27:48.753Z,1013.63
2017-10-09T05:28:48.725Z,1013.6
2017-10-09T05:29:48.700Z,1013.59
2017-10-09T05:30:48.677Z,1013.61
2017-10-09T05:31:48.652Z,1013.58
2017-10-09T05:32:48.626Z,1013.63
2017-10-09T05:33:48.602Z,1013.62
2017-10-09T05:34:48.578Z,1013.64
2017-10-09T05:35:48.562Z,1013.65
2017-10-09T05:36:48.528Z,1013.65
2017-10-09T05:37:48.505Z,1013.61
2017-10-09T05:38:48.482Z,1013.64
2017-10-09T05:39:48.455Z,1013.62
2017-10-09T05:40:48.432Z,1013.62
2017-10-09T05:41:48.407Z,1013.6
2017-10-09T05:42:48.382Z,1013.61
2017-10-09T05:43:48.357Z,1013.62
2017-10-09T05:44:48.332Z,1013.64
2017-10-09T05:45:48.309Z,1013.63
2017-10-09T05:46:48.286Z,1013.65
2017-10-09T05:47:48.261Z,1013.64
2017-10-09T05:48:48.235Z,1013.63
2017-10-09T05:49:48.210Z,1013.65
2017-10-09T05:50:48.189Z,1013.61
2017-10-09T05:51:48.162Z,1013.64
2017-10-09T05:52:48.136Z,1013.66
2017-10-09T05:53:48.116Z,1013.64
2017-10-09T05:54:48.089Z,1013.67
2017-10-09T05:55:48.063Z,1013.62
2017-10-09T05:56:48.040Z,1013.65
2017-10-09T05:57:48.015Z,1013.68
2017-10-09T05:58:47.987Z,1013.67
2017-10-09T05:59:47.966Z,1013.62
2017-10-09T06:00:47.945Z,1013.66
2017-10-09T06:01:47.916Z,1013.67
2017-10-09T06:02:47.894Z,1013.68
2017-10-09T06:03:47.868Z,1013.66
2017-10-09T06:04:47.844Z,1013.68
2017-10-09T06:05:47.818Z,1013.65
2017-10-09T06:06:47.793Z,1013.71
2017-10-09T06:07:47.770Z,1013.73
2017-10-09T06:08:47.746Z,1013.65
2017-10-09T06:09:47.722Z,1013.63
2017-10-09T06:10:47.695Z,1013.7
2017-10-09T06:11:47.674Z,1013.72
2017-10-09T06:12:47.649Z,1013.75
2017-10-09T06:13:47.626Z,1013.7
2017-10-09T06:14:47.599Z,1013.67
2017-10-09T06:15:47.576Z,1013.64
2017-10-09T06:16:47.552Z,1013.66
2017-10-09T06:17:47.532Z,1013.63
2017-10-09T06:18:47.506Z,1013.67
2017-10-09T06:19:47.479Z,1013.67
2017-10-09T06:20:47.455Z,1013.68
2017-10-09T06:21:47.431Z,1013.62
2017-10-09T06:22:47.407Z,1013.69
2017-10-09T06:23:47.385Z,1013.64
2017-10-09T06:24:47.366Z,1013.66
2017-10-09T06:25:47.336Z,1013.69
2017-10-09T06:26:47.311Z,1013.71
2017-10-09T06:27:47.286Z,1013.65
2017-10-09T06:28:47.263Z,1013.65
2017-10-09T06:29:47.237Z,1013.67
2017-10-09T06:30:47.214Z,1013.73
2017-10-09T06:31:47.194Z,1013.69
2017-10-09T06:32:47.169Z,1013.68
2017-10-09T06:33:47.144Z,1013.65
2017-10-09T06:34:47.121Z,1013.66
2017-10-09T06:35:47.099Z,1013.65
2017-10-09T06:36:47.072Z,1013.62
2017-10-09T06:37:47.050Z,1013.6
2017-10-09T06:38:47.024Z,1013.63
2017-10-09T06:39:47.003Z,1013.6
2017-10-09T06:40:46.978Z,1013.54
2017-10-09T06:41:46.956Z,1013.55
2017-10-09T06:42:46.931Z,1013.55
2017-10-09T06:43:46.907Z,1013.55
2017-10-09T06:44:46.882Z,1013.55
2017-10-09T06:45:46.861Z,1013.6
2017-10-09T06:46:46.836Z,1013.52
2017-10-09T06:47:46.810Z,1013.59
2017-10-09T06:48:46.790Z,1013.6
2017-10-09T06:49:46.766Z,1013.6
2017-10-09T06:50:46.742Z,1013.61
2017-10-09T06:51:46.724Z,1013.6
2017-10-09T06:52:46.694Z,1013.63
2017-10-09T06:53:46.671Z,1013.64
2017-10-09T06:54:46.647Z,1013.65
2017-10-09T06:55:46.624Z,1013.68
2017-10-09T06:56:46.601Z,1013.66
2017-10-09T06:57:46.578Z,1013.65
2017-10-09T06:58:46.553Z,1013.58
2017-10-09T06:59:46.529Z,1013.61
2017-10-09T07:00:46.506Z,1013.59
2017-10-09T07:01:46.483Z,1013.6
2017-10-09T07:02:46.462Z,1013.59
2017-10-09T07:03:46.437Z,1013.63
2017-10-09T07:04:46.411Z,1013.62
2017-10-09T07:05:46.388Z,1013.63
2017-10-09T07:06:46.367Z,1013.68
2017-10-09T07:07:46.341Z,1013.67
2017-10-09T07:08:46.319Z,1013.73
2017-10-09T07:09:46.293Z,1013.74
2017-10-09T07:10:46.274Z,1013.69
2017-10-09T07:11:46.247Z,1013.75
2017-10-09T07:12:46.223Z,1013.76
2017-10-09T07:13:46.200Z,1013.76
2017-10-09T07:14:46.177Z,1013.74
2017-10-09T07:15:46.158Z,1013.78
2017-10-09T07:16:46.130Z,1013.76
2017-10-09T07:17:46.106Z,1013.75
2017-10-09T07:18:46.082Z,1013.75
2017-10-09T07:19:46.063Z,1013.75
2017-10-09T07:20:46.038Z,1013.79
2017-10-09T07:21:46.021Z,1013.69
2017-10-09T07:22:45.990Z,1013.74
2017-10-09T07:23:45.966Z,1013.75
2017-10-09T07:24:45.943Z,1013.72
2017-10-09T07:25:45.922Z,1013.73
2017-10-09T07:26:45.897Z,1013.74
2017-10-09T07:27:45.875Z,1013.76
2017-10-09T07:28:45.852Z,1013.78
2017-10-09T07:29:45.827Z,1013.78
2017-10-09T07:30:45.804Z,1013.81
2017-10-09T07:31:45.780Z,1013.82
2017-10-09T07:32:45.759Z,1013.79
2017-10-09T07:33:45.733Z,1013.81
2017-10-09T07:34:45.715Z,1013.8
2017-10-09T07:35:45.690Z,1013.81
2017-10-09T07:36:45.666Z,1013.81
2017-10-09T07:37:45.644Z,1013.85
2017-10-09T07:38:45.624Z,1013.89
2017-10-09T07:39:45.599Z,1013.87
2017-10-09T07:40:45.574Z,1013.86
2017-10-09T07:41:45.555Z,1013.86
2017-10-09T07:42:45.529Z,1013.94
2017-10-09T07:43:45.508Z,1013.83
2017-10-09T07:44:45.485Z,1013.81
2017-10-09T07:45:45.461Z,1013.83
2017-10-09T07:46:45.440Z,1013.82
2017-10-09T07:47:45.415Z,1013.82
2017-10-09T07:48:45.406Z,1013.82
2017-10-09T07:49:45.371Z,1013.8
2017-10-09T07:50:45.350Z,1013.83
2017-10-09T07:51:45.328Z,1013.84
2017-10-09T07:52:45.305Z,1013.83
2017-10-09T07:53:45.283Z,1013.79
2017-10-09T07:54:45.260Z,1013.77
2017-10-09T07:55:45.241Z,1013.84
2017-10-09T07:56:45.216Z,1013.83
2017-10-09T07:57:45.197Z,1013.8
2017-10-09T07:58:45.171Z,1013.8
2017-10-09T07:59:45.150Z,1013.81
2017-10-09T08:00:45.129Z,1013.78
2017-10-09T08:01:45.109Z,1013.82
2017-10-09T08:02:45.082Z,1013.8
2017-10-09T08:03:45.061Z,1013.85
2017-10-09T08:04:45.041Z,1013.81
2017-10-09T08:05:45.022Z,1013.85
2017-10-09T08:06:45.002Z,1013.84
2017-10-09T08:07:44.975Z,1013.81
2017-10-09T08:08:44.951Z,1013.81
2017-10-09T08:09:44.929Z,1013.85
2017-10-09T08:10:44.908Z,1013.87
2017-10-09T08:11:44.883Z,1013.87
2017-10-09T08:12:44.863Z,1013.86
2017-10-09T08:13:44.840Z,1013.8
2017-10-09T08:14:44.823Z,1013.82
2017-10-09T08:15:44.797Z,1013.79
2017-10-09T08:16:44.774Z,1013.78
2017-10-09T08:17:44.752Z,1013.82
2017-10-09T08:18:44.730Z,1013.81
2017-10-09T08:19:44.708Z,1013.78
2017-10-09T08:20:44.686Z,1013.75
2017-10-09T08:21:44.665Z,1013.75
2017-10-09T08:22:44.643Z,1013.78
2017-10-09T08:23:44.622Z,1013.72
2017-10-09T08:24:44.600Z,1013.76
2017-10-09T08:25:44.575Z,1013.76
2017-10-09T08:26:44.553Z,1013.79
2017-10-09T08:27:44.529Z,1013.77
2017-10-09T08:28:44.510Z,1013.78
2017-10-09T08:29:44.488Z,1013.79
2017-10-09T08:30:44.465Z,1013.79
2017-10-09T08:31:44.444Z,1013.81
2017-10-09T08:32:44.420Z,1013.81
2017-10-09T08:33:44.400Z,1013.8
2017-10-09T08:34:44.379Z,1013.81
2017-10-09T08:35:44.354Z,1013.82
2017-10-09T08:36:44.334Z,1013.8
2017-10-09T08:37:44.313Z,1013.8
2017-10-09T08:38:44.297Z,1013.78
2017-10-09T08:39:44.268Z,1013.81
2017-10-09T08:40:44.243Z,1013.73
2017-10-09T08:41:44.232Z,1013.76
2017-10-09T08:42:44.201Z,1013.76
2017-10-09T08:43:44.183Z,1013.76
2017-10-09T08:44:44.158Z,1013.77
2017-10-09T08:45:44.133Z,1013.75
2017-10-09T08:46:44.111Z,1013.79
2017-10-09T08:47:44.090Z,1013.79
2017-10-09T08:48:44.068Z,1013.79
2017-10-09T08:49:44.048Z,1013.79
2017-10-09T08:50:44.026Z,1013.79
2017-10-09T08:51:44.004Z,1013.79
2017-10-09T08:52:43.981Z,1013.82
2017-10-09T08:53:43.957Z,1013.77
2017-10-09T08:54:43.936Z,1013.86
2017-10-09T08:55:43.915Z,1013.84
2017-10-09T08:56:43.894Z,1013.89
2017-10-09T08:57:43.872Z,1013.85
2017-10-09T08:58:43.852Z,1013.88
2017-10-09T08:59:43.830Z,1013.87
2017-10-09T09:00:43.805Z,1013.88
2017-10-09T09:01:43.802Z,1013.87
2017-10-09T09:02:43.764Z,1013.89
2017-10-09T09:03:43.739Z,1013.88
2017-10-09T09:04:43.718Z,1013.88
2017-10-09T09:05:43.698Z,1013.85
2017-10-09T09:06:43.673Z,1013.86
2017-10-09T09:07:43.656Z,1013.88
2017-10-09T09:08:43.636Z,1013.9
2017-10-09T09:09:43.609Z,1013.93
2017-10-09T09:10:43.586Z,1013.89
2017-10-09T09:11:43.565Z,1013.92
2017-10-09T09:12:43.546Z,1013.9
2017-10-09T09:13:43.520Z,1013.9
2017-10-09T09:14:43.499Z,1013.95
2017-10-09T09:15:43.494Z,1013.9
2017-10-09T09:16:43.455Z,1013.94
2017-10-09T09:17:43.441Z,1013.92
2017-10-09T09:18:43.411Z,1013.91
2017-10-09T09:19:43.389Z,1013.93
2017-10-09T09:20:43.368Z,1013.87
2017-10-09T09:21:43.349Z,1013.91
2017-10-09T09:22:43.323Z,1013.92
2017-10-09T09:23:43.306Z,1013.93
2017-10-09T09:24:43.281Z,1013.9
2017-10-09T09:25:43.259Z,1013.89
2017-10-09T09:26:43.239Z,1013.94
2017-10-09T09:27:43.216Z,1013.94
2017-10-09T09:28:43.194Z,1013.92
2017-10-09T09:29:43.167Z,1013.93
2017-10-09T09:30:43.148Z,1013.9
2017-10-09T09:31:43.128Z,1013.85
2017-10-09T09:32:43.105Z,1013.87
2017-10-09T09:33:43.084Z,1013.89
2017-10-09T09:34:43.061Z,1013.87
2017-10-09T09:35:43.039Z,1013.85
2017-10-09T09:36:43.017Z,1013.84
2017-10-09T09:37:42.995Z,1013.85
2017-10-09T09:38:42.975Z,1013.85
2017-10-09T09:39:42.953Z,1013.86
2017-10-09T09:40:42.930Z,1013.84
2017-10-09T09:41:42.909Z,1013.85
2017-10-09T09:42:42.891Z,1013.84
2017-10-09T09:43:42.866Z,1013.87
2017-10-09T09:44:42.843Z,1013.84
2017-10-09T09:45:42.822Z,1013.84
2017-10-09T09:46:42.802Z,1013.82
2017-10-09T09:47:42.780Z,1013.82
2017-10-09T09:48:42.763Z,1013.86
2017-10-09T09:49:42.758Z,1013.85
2017-10-09T09:50:42.716Z,1013.86
2017-10-09T09:51:42.692Z,1013.88
2017-10-09T09:52:42.673Z,1013.85
2017-10-09T09:53:42.648Z,1013.89
2017-10-09T09:54:42.629Z,1013.88
2017-10-09T09:55:42.606Z,1013.92
2017-10-09T09:56:42.584Z,1013.85
2017-10-09T09:57:42.565Z,1013.88
2017-10-09T09:58:42.543Z,1013.91
2017-10-09T09:59:42.523Z,1013.9
2017-10-09T10:00:42.500Z,1013.95
2017-10-09T10:01:42.478Z,1013.92
2017-10-09T10:02:42.459Z,1013.93
2017-10-09T10:03:42.438Z,1013.98
2017-10-09T10:04:42.415Z,1013.92
2017-10-09T10:05:42.396Z,1013.93
2017-10-09T10:06:42.375Z,1013.94
2017-10-09T10:07:42.353Z,1013.95
2017-10-09T10:08:42.335Z,1013.98
2017-10-09T10:09:42.313Z,1013.96
2017-10-09T10:10:42.291Z,1013.96
2017-10-09T10:11:42.270Z,1013.97
2017-10-09T10:12:42.248Z,1014.01
2017-10-09T10:13:42.227Z,1013.98
2017-10-09T10:14:42.208Z,1013.97
2017-10-09T10:15:42.186Z,1014
2017-10-09T10:16:42.165Z,1013.96
2017-10-09T10:17:42.143Z,1013.96
2017-10-09T10:18:42.121Z,1013.95
2017-10-09T10:19:42.102Z,1013.98
2017-10-09T10:20:42.084Z,1013.93
2017-10-09T10:21:42.061Z,1013.91
2017-10-09T10:22:42.041Z,1013.9
2017-10-09T10:23:42.019Z,1013.97
2017-10-09T10:24:41.995Z,1013.91
2017-10-09T10:25:41.977Z,1013.91
2017-10-09T10:26:41.961Z,1013.95
2017-10-09T10:27:41.932Z,1013.86
2017-10-09T10:28:41.913Z,1013.88
2017-10-09T10:29:41.890Z,1013.88
2017-10-09T10:30:41.865Z,1013.88
2017-10-09T10:31:41.848Z,1013.87
2017-10-09T10:32:41.829Z,1013.85
2017-10-09T10:33:41.811Z,1013.79
2017-10-09T10:34:41.786Z,1013.82
2017-10-09T10:35:41.763Z,1013.82
2017-10-09T10:36:41.743Z,1013.81
2017-10-09T10:37:41.722Z,1013.82
2017-10-09T10:38:41.699Z,1013.81
2017-10-09T10:39:41.687Z,1013.83
2017-10-09T10:40:41.656Z,1013.77
2017-10-09T10:41:41.637Z,1013.76
2017-10-09T10:42:41.616Z,1013.78
2017-10-09T10:43:41.597Z,1013.77
2017-10-09T10:44:41.578Z,1013.77
2017-10-09T10:45:41.551Z,1013.8
2017-10-09T10:46:41.528Z,1013.78
2017-10-09T10:47:41.511Z,1013.77
2017-10-09T10:48:41.489Z,1013.75
2017-10-09T10:49:41.466Z,1013.79
2017-10-09T10:50:41.444Z,1013.74
2017-10-09T10:51:41.423Z,1013.72
2017-10-09T10:52:41.407Z,1013.72
2017-10-09T10:53:41.386Z,1013.73
2017-10-09T10:54:41.365Z,1013.71
2017-10-09T10:55:41.340Z,1013.76
2017-10-09T10:56:41.319Z,1013.66
2017-10-09T10:57:41.298Z,1013.68
2017-10-09T10:58:41.280Z,1013.61
2017-10-09T10:59:41.255Z,1013.64
2017-10-09T11:00:41.234Z,1013.57
2017-10-09T11:01:41.215Z,1013.56
2017-10-09T11:02:41.196Z,1013.56
2017-10-09T11:03:41.171Z,1013.51
2017-10-09T11:04:41.151Z,1013.56
2017-10-09T11:05:41.130Z,1013.51
2017-10-09T11:06:41.115Z,1013.52
2017-10-09T11:07:41.089Z,1013.51
2017-10-09T11:08:41.066Z,1013.44
2017-10-09T11:09:41.046Z,1013.44
2017-10-09T11:10:41.026Z,1013.46
2017-10-09T11:11:41.010Z,1013.41
2017-10-09T11:12:40.984Z,1013.41
2017-10-09T11:13:40.964Z,1013.37
2017-10-09T11:14:40.944Z,1013.38
2017-10-09T11:15:40.922Z,1013.35
2017-10-09T11:16:40.901Z,1013.38
2017-10-09T11:17:40.881Z,1013.38
2017-10-09T11:18:40.868Z,1013.33
2017-10-09T11:19:40.840Z,1013.36
2017-10-09T11:20:40.820Z,1013.31
2017-10-09T11:21:40.802Z,1013.33
2017-10-09T11:22:40.784Z,1013.32
2017-10-09T11:23:40.760Z,1013.33
2017-10-09T11:24:40.740Z,1013.3
2017-10-09T11:25:40.718Z,1013.27
2017-10-09T11:26:40.696Z,1013.26
2017-10-09T11:27:40.674Z,1013.24
2017-10-09T11:28:40.659Z,1013.2
2017-10-09T11:29:40.634Z,1013.22
2017-10-09T11:30:40.614Z,1013.16
2017-10-09T11:31:40.595Z,1013.16
2017-10-09T11:32:40.573Z,1013.16
2017-10-09T11:33:40.553Z,1013.17
2017-10-09T11:34:40.529Z,1013.15
2017-10-09T11:35:40.517Z,1013.15
2017-10-09T11:36:40.491Z,1013.08
2017-10-09T11:37:40.471Z,1013.09
2017-10-09T11:38:40.450Z,1013.07
2017-10-09T11:39:40.429Z,1013.07
2017-10-09T11:40:40.408Z,1013.07
2017-10-09T11:41:40.388Z,1013.07
2017-10-09T11:42:40.367Z,1012.98
2017-10-09T11:43:40.348Z,1013.03
2017-10-09T11:44:40.329Z,1013
2017-10-09T11:45:40.306Z,1013.05
2017-10-09T11:46:40.285Z,1013
2017-10-09T11:47:40.263Z,1012.97
2017-10-09T11:48:40.242Z,1012.99
2017-10-09T11:49:40.222Z,1013
2017-10-09T11:50:40.204Z,1012.95
2017-10-09T11:51:40.180Z,1012.94
2017-10-09T11:52:40.157Z,1012.96
2017-10-09T11:53:40.140Z,1012.94
2017-10-09T11:54:40.119Z,1012.94
2017-10-09T11:55:40.101Z,1012.94
2017-10-09T11:56:40.081Z,1012.92
2017-10-09T11:57:40.057Z,1012.9
2017-10-09T11:58:40.038Z,1012.96
2017-10-09T11:59:40.016Z,1012.9
2017-10-09T12:00:39.995Z,1012.88
2017-10-09T12:01:39.976Z,1012.93
2017-10-09T12:02:39.952Z,1012.91
2017-10-09T12:03:39.931Z,1012.94
2017-10-09T12:04:39.912Z,1012.9
2017-10-09T12:05:39.890Z,1012.87
2017-10-09T12:06:39.873Z,1012.89
2017-10-09T12:07:39.850Z,1012.89
2017-10-09T12:08:39.829Z,1012.86
2017-10-09T12:09:39.807Z,1012.87